createdAt,value
2018-06-30T00:00:05.960Z,22.45
2018-06-30T00:02:35.700Z,22.31
2018-06-30T00:05:05.434Z,22.28
2018-06-30T00:07:35.148Z,21.99
2018-06-30T00:10:04.985Z,21.67
2018-06-30T00:12:34.840Z,21.40
2018-06-30T00:15:04.614Z,20.89
2018-06-30T00:17:34.622Z,20.67
2018-06-30T00:20:04.454Z,20.83
2018-06-30T00:22:34.153Z,20.76
2018-06-30T00:25:03.790Z,20.52
2018-06-30T00:27:33.446Z,21.24
2018-06-30T00:30:03.138Z,21.59
2018-06-30T00:32:32.754Z,21.84
2018-06-30T00:35:02.457Z,21.97
2018-06-30T00:37:32.247Z,22.02
2018-06-30T00:40:02.379Z,21.75
2018-06-30T00:42:32.158Z,21.44
2018-06-30T00:45:01.830Z,21.36
2018-06-30T00:47:31.498Z,21.14
2018-06-30T00:50:01.163Z,20.88
2018-06-30T00:52:31.009Z,21.07
2018-06-30T00:55:00.742Z,20.52
2018-06-30T00:57:30.422Z,20.57
2018-06-30T01:00:00.114Z,20.51
2018-06-30T01:02:29.805Z,20.32
2018-06-30T01:04:59.515Z,20.61
2018-06-30T01:07:29.262Z,21.29
2018-06-30T01:09:58.910Z,21.75
2018-06-30T01:12:28.582Z,21.70
2018-06-30T01:14:57.901Z,21.07
2018-06-30T01:17:27.601Z,20.64
2018-06-30T01:19:57.297Z,20.29
2018-06-30T01:22:26.961Z,19.53
2018-06-30T01:24:56.933Z,19.71
2018-06-30T01:27:26.589Z,19.76
2018-06-30T01:29:56.249Z,19.61
2018-06-30T01:32:25.925Z,19.46
2018-06-30T01:34:55.593Z,19.40
2018-06-30T01:37:25.262Z,19.63
2018-06-30T01:39:55.362Z,19.83
2018-06-30T01:42:25.079Z,19.55
2018-06-30T01:44:54.733Z,19.80
2018-06-30T01:47:24.408Z,20.18
2018-06-30T01:49:54.097Z,20.28
2018-06-30T01:52:23.810Z,20.31
2018-06-30T01:54:53.522Z,20.18
2018-06-30T01:57:23.276Z,20.09
2018-06-30T01:59:53.074Z,19.80
2018-06-30T02:02:22.745Z,19.55
2018-06-30T02:04:52.486Z,19.87
2018-06-30T02:07:22.158Z,19.98
2018-06-30T02:09:51.782Z,19.64
2018-06-30T02:12:21.440Z,19.32
2018-06-30T02:14:51.051Z,19.49
2018-06-30T02:17:20.666Z,19.32
2018-06-30T02:19:50.342Z,19.04
2018-06-30T02:22:20.023Z,19.30
2018-06-30T02:24:50.176Z,19.46
2018-06-30T02:27:19.839Z,19.31
2018-06-30T02:29:49.478Z,19.08
2018-06-30T02:32:19.097Z,19.01
2018-06-30T02:34:48.782Z,18.68
2018-06-30T02:37:18.414Z,18.51
2018-06-30T02:39:48.034Z,18.64
2018-06-30T02:42:17.618Z,19.10
2018-06-30T02:44:47.238Z,18.96
2018-06-30T02:47:16.881Z,19.54
2018-06-30T02:49:46.518Z,19.96
2018-06-30T02:52:16.192Z,19.68
2018-06-30T02:54:46.178Z,19.36
2018-06-30T02:57:15.874Z,19.12
2018-06-30T02:59:45.801Z,18.60
2018-06-30T03:02:15.838Z,18.13
2018-06-30T03:04:45.478Z,18.14
2018-06-30T03:07:15.389Z,18.07
2018-06-30T03:09:44.987Z,17.81
2018-06-30T03:12:14.597Z,17.83
2018-06-30T03:14:44.162Z,17.94
2018-06-30T03:17:13.793Z,17.76
2018-06-30T03:19:43.645Z,18.07
2018-06-30T03:22:13.246Z,18.01
2018-06-30T03:24:42.847Z,17.94
2018-06-30T03:27:12.521Z,18.22
2018-06-30T03:29:42.138Z,18.43
2018-06-30T03:32:11.838Z,18.96
2018-06-30T03:34:41.094Z,18.70
2018-06-30T03:37:10.722Z,18.55
2018-06-30T03:39:40.317Z,18.28
2018-06-30T03:42:09.934Z,18.09
2018-06-30T03:44:39.539Z,17.98
2018-06-30T03:47:09.166Z,18.02
2018-06-30T03:49:38.778Z,18.07
2018-06-30T03:52:08.383Z,18.20
2018-06-30T03:54:37.697Z,18.33
2018-06-30T03:57:07.305Z,18.11
2018-06-30T03:59:36.613Z,17.98
2018-06-30T04:02:06.423Z,17.95
2018-06-30T04:04:36.021Z,17.69
2018-06-30T04:07:05.697Z,17.39
2018-06-30T04:09:35.289Z,17.44
2018-06-30T04:12:04.914Z,17.40
2018-06-30T04:14:34.542Z,17.51
2018-06-30T04:17:04.153Z,17.79
2018-06-30T04:19:33.751Z,17.66
2018-06-30T04:22:03.452Z,17.87
2018-06-30T04:24:33.041Z,17.60
2018-06-30T04:27:02.654Z,17.46
2018-06-30T04:29:32.294Z,17.69
2018-06-30T04:32:01.885Z,17.57
2018-06-30T04:34:31.544Z,17.44
2018-06-30T04:37:01.245Z,17.69
2018-06-30T04:39:30.841Z,17.43
2018-06-30T04:42:00.528Z,17.74
2018-06-30T04:44:30.170Z,18.07
2018-06-30T04:46:59.766Z,18.23
2018-06-30T04:49:29.424Z,18.22
2018-06-30T04:51:59.084Z,18.38
2018-06-30T04:54:28.749Z,18.35
2018-06-30T04:56:58.382Z,18.09
2018-06-30T04:59:28.054Z,18.18
2018-06-30T05:01:57.682Z,17.94
2018-06-30T05:04:27.398Z,18.00
2018-06-30T05:06:57.017Z,18.22
2018-06-30T05:09:26.677Z,18.12
2018-06-30T05:11:56.888Z,18.30
2018-06-30T05:14:26.576Z,18.37
2018-06-30T05:16:56.232Z,18.37
2018-06-30T05:19:25.909Z,18.28
2018-06-30T05:21:55.575Z,18.35
2018-06-30T05:24:25.270Z,18.41
2018-06-30T05:26:54.930Z,18.47
2018-06-30T05:29:24.652Z,18.32
2018-06-30T05:31:54.997Z,18.21
2018-06-30T05:34:24.932Z,18.69
2018-06-30T05:36:54.714Z,18.64
2018-06-30T05:39:24.434Z,18.43
2018-06-30T05:41:54.062Z,18.33
2018-06-30T05:44:23.693Z,18.60
2018-06-30T05:46:53.338Z,18.59
2018-06-30T05:49:22.961Z,18.62
2018-06-30T05:51:52.856Z,18.80
2018-06-30T05:54:22.734Z,18.77
2018-06-30T05:56:52.355Z,18.92
2018-06-30T05:59:22.052Z,18.97
2018-06-30T06:01:51.672Z,18.86
2018-06-30T06:04:21.305Z,19.06
2018-06-30T06:06:50.950Z,18.99
2018-06-30T06:09:20.538Z,19.00
2018-06-30T06:11:50.203Z,19.04
2018-06-30T06:14:19.813Z,19.12
2018-06-30T06:16:49.650Z,19.17
2018-06-30T06:19:19.246Z,19.12
2018-06-30T06:21:48.940Z,19.15
2018-06-30T06:24:18.547Z,19.23
2018-06-30T06:26:48.150Z,19.31
2018-06-30T06:29:17.754Z,19.36
2018-06-30T06:31:47.409Z,19.39
2018-06-30T06:34:17.030Z,19.56
2018-06-30T06:36:46.686Z,19.56
2018-06-30T06:39:16.319Z,19.58
2018-06-30T06:41:46.100Z,19.74
2018-06-30T06:44:15.633Z,19.79
2018-06-30T06:46:45.285Z,19.83
2018-06-30T06:49:14.886Z,19.86
2018-06-30T06:51:44.509Z,19.89
2018-06-30T06:54:14.141Z,19.90
2018-06-30T06:56:43.722Z,19.97
2018-06-30T06:59:13.409Z,20.13
2018-06-30T07:01:43.022Z,20.07
2018-06-30T07:04:12.645Z,20.24
2018-06-30T07:06:42.231Z,20.21
2018-06-30T07:09:12.609Z,20.17
2018-06-30T07:11:42.746Z,20.27
2018-06-30T07:14:12.421Z,20.37
2018-06-30T07:16:42.042Z,20.43
2018-06-30T07:19:11.706Z,20.43
2018-06-30T07:21:41.474Z,20.46
2018-06-30T07:24:11.150Z,20.60
2018-06-30T07:26:40.782Z,20.63
2018-06-30T07:29:10.418Z,20.71
2018-06-30T07:31:40.062Z,20.82
2018-06-30T07:34:09.783Z,20.89
2018-06-30T07:36:39.394Z,21.06
2018-06-30T07:39:10.531Z,20.95
2018-06-30T07:41:41.274Z,20.97
2018-06-30T07:44:10.971Z,21.03
2018-06-30T07:46:40.642Z,21.08
2018-06-30T07:49:10.314Z,21.13
2018-06-30T07:51:39.934Z,21.33
2018-06-30T07:54:09.610Z,21.25
2018-06-30T07:56:39.249Z,21.25
2018-06-30T07:59:08.849Z,21.30
2018-06-30T08:01:38.509Z,21.65
2018-06-30T08:04:08.190Z,21.71
2018-06-30T08:06:37.818Z,21.69
2018-06-30T08:09:09.988Z,21.69
2018-06-30T08:11:40.530Z,21.81
2018-06-30T08:14:10.390Z,22.08
2018-06-30T08:16:40.066Z,22.09
2018-06-30T08:19:10.066Z,22.08
2018-06-30T08:21:39.834Z,22.08
2018-06-30T08:24:09.670Z,22.04
2018-06-30T08:26:42.943Z,22.09
2018-06-30T08:29:12.714Z,22.06
2018-06-30T08:31:42.519Z,22.28
2018-06-30T08:34:12.195Z,22.48
2018-06-30T08:36:42.024Z,22.40
2018-06-30T08:39:13.622Z,22.48
2018-06-30T08:41:43.423Z,22.61
2018-06-30T08:44:13.070Z,22.80
2018-06-30T08:46:42.835Z,22.91
2018-06-30T08:49:12.549Z,22.92
2018-06-30T08:51:42.214Z,22.98
2018-06-30T08:54:11.929Z,22.93
2018-06-30T08:56:41.315Z,23.13
2018-06-30T08:59:11.214Z,23.21
2018-06-30T09:01:41.074Z,23.00
2018-06-30T09:04:11.095Z,23.20
2018-06-30T09:06:40.761Z,23.23
2018-06-30T09:09:11.370Z,23.32
2018-06-30T09:11:41.470Z,23.29
2018-06-30T09:14:11.269Z,23.61
2018-06-30T09:16:40.937Z,23.59
2018-06-30T09:19:10.610Z,23.71
2018-06-30T09:21:40.350Z,23.52
2018-06-30T09:24:10.215Z,23.47
2018-06-30T09:26:39.850Z,23.57
2018-06-30T09:29:09.534Z,23.85
2018-06-30T09:31:39.202Z,23.74
2018-06-30T09:34:09.085Z,24.20
2018-06-30T09:36:38.847Z,24.49
2018-06-30T09:39:10.978Z,24.03
2018-06-30T09:41:41.017Z,24.21
2018-06-30T09:44:10.698Z,24.32
2018-06-30T09:46:40.354Z,24.45
2018-06-30T09:49:10.019Z,24.16
2018-06-30T09:51:39.750Z,24.15
2018-06-30T09:54:09.464Z,24.40
2018-06-30T09:56:39.132Z,24.40
2018-06-30T09:59:08.801Z,24.66
2018-06-30T10:01:38.632Z,24.60
2018-06-30T10:04:08.265Z,24.46
2018-06-30T10:06:37.966Z,24.76
2018-06-30T10:09:10.954Z,24.99
2018-06-30T10:11:40.994Z,25.06
2018-06-30T10:14:10.713Z,24.90
2018-06-30T10:16:40.325Z,24.83
2018-06-30T10:19:09.965Z,24.78
2018-06-30T10:21:39.738Z,24.96
2018-06-30T10:24:09.444Z,24.99
2018-06-30T10:26:39.305Z,24.95
2018-06-30T10:29:08.977Z,24.81
2018-06-30T10:31:38.711Z,25.13
2018-06-30T10:34:08.355Z,25.10
2018-06-30T10:36:38.025Z,25.19
2018-06-30T10:39:11.481Z,25.46
2018-06-30T10:41:41.809Z,25.17
2018-06-30T10:44:11.146Z,25.41
2018-06-30T10:46:40.859Z,25.16
2018-06-30T10:49:10.613Z,25.19
2018-06-30T10:51:40.258Z,25.28
2018-06-30T10:54:09.962Z,25.49
2018-06-30T10:56:39.625Z,25.63
2018-06-30T10:59:09.356Z,25.41
2018-06-30T11:01:39.054Z,25.88
2018-06-30T11:04:08.838Z,25.77
2018-06-30T11:06:38.492Z,25.70
2018-06-30T11:09:11.306Z,25.90
2018-06-30T11:11:41.138Z,25.80
2018-06-30T11:14:10.834Z,26.03
2018-06-30T11:16:40.514Z,25.88
2018-06-30T11:19:10.263Z,25.92
2018-06-30T11:21:40.103Z,26.09
2018-06-30T11:24:09.905Z,26.09
2018-06-30T11:26:39.697Z,26.10
2018-06-30T11:29:09.535Z,26.46
2018-06-30T11:31:39.296Z,25.88
2018-06-30T11:34:09.066Z,26.21
2018-06-30T11:36:38.810Z,26.16
2018-06-30T11:39:12.441Z,26.40
2018-06-30T11:41:42.903Z,26.13
2018-06-30T11:44:13.007Z,26.12
2018-06-30T11:46:42.823Z,26.30
2018-06-30T11:49:12.689Z,26.57
2018-06-30T11:51:42.599Z,26.44
2018-06-30T11:54:12.431Z,26.29
2018-06-30T11:56:42.187Z,26.25
2018-06-30T11:59:11.968Z,26.32
2018-06-30T12:01:41.757Z,26.93
2018-06-30T12:04:13.231Z,26.60
2018-06-30T12:06:42.981Z,26.83
2018-06-30T12:09:12.874Z,26.89
2018-06-30T12:11:42.619Z,26.80
2018-06-30T12:14:12.443Z,26.89
2018-06-30T12:16:42.220Z,27.17
2018-06-30T12:19:13.124Z,26.85
2018-06-30T12:21:42.902Z,27.34
2018-06-30T12:24:13.514Z,27.18
2018-06-30T12:26:44.259Z,27.11
2018-06-30T12:29:14.117Z,27.03
2018-06-30T12:31:43.935Z,26.90
2018-06-30T12:34:13.751Z,26.92
2018-06-30T12:36:43.505Z,27.50
2018-06-30T12:39:13.482Z,27.28
2018-06-30T12:41:43.403Z,27.38
2018-06-30T12:44:13.335Z,27.57
2018-06-30T12:46:43.167Z,27.41
2018-06-30T12:49:12.982Z,27.53
2018-06-30T12:51:42.715Z,27.58
2018-06-30T12:54:12.629Z,27.91
2018-06-30T12:56:42.454Z,27.88
2018-06-30T12:59:12.351Z,27.47
2018-06-30T13:01:42.298Z,27.29
2018-06-30T13:04:12.042Z,27.65
2018-06-30T13:06:41.938Z,27.57
2018-06-30T13:09:14.683Z,27.87
2018-06-30T13:11:44.494Z,27.82
2018-06-30T13:14:14.310Z,28.02
2018-06-30T13:16:44.212Z,27.96
2018-06-30T13:19:14.046Z,27.92
2018-06-30T13:21:43.887Z,27.58
2018-06-30T13:24:13.646Z,27.80
2018-06-30T13:26:43.550Z,27.76
2018-06-30T13:29:13.398Z,27.56
2018-06-30T13:31:43.128Z,27.80
2018-06-30T13:34:12.909Z,27.75
2018-06-30T13:36:42.762Z,27.55
2018-06-30T13:39:15.132Z,27.71
2018-06-30T13:41:45.007Z,27.89
2018-06-30T13:44:14.903Z,27.68
2018-06-30T13:46:44.746Z,27.81
2018-06-30T13:49:14.603Z,27.89
2018-06-30T13:51:44.465Z,28.06
2018-06-30T13:54:14.254Z,28.03
2018-06-30T13:56:44.154Z,28.18
2018-06-30T13:59:14.018Z,27.99
2018-06-30T14:01:43.870Z,28.26
2018-06-30T14:04:13.704Z,28.36
2018-06-30T14:06:43.534Z,27.81
2018-06-30T14:09:13.298Z,27.84
2018-06-30T14:11:43.086Z,27.95
2018-06-30T14:14:12.830Z,27.74
2018-06-30T14:16:42.743Z,28.09
2018-06-30T14:19:12.549Z,27.99
2018-06-30T14:21:42.438Z,28.24
2018-06-30T14:24:12.210Z,28.04
2018-06-30T14:26:42.049Z,28.16
2018-06-30T14:29:11.815Z,28.10
2018-06-30T14:31:41.634Z,28.02
2018-06-30T14:34:11.506Z,28.46
2018-06-30T14:36:41.412Z,28.13
2018-06-30T14:39:13.031Z,28.10
2018-06-30T14:41:42.862Z,28.04
2018-06-30T14:44:12.731Z,28.30
2018-06-30T14:46:42.445Z,28.75
2018-06-30T14:49:12.243Z,28.23
2018-06-30T14:51:42.148Z,28.20
2018-06-30T14:54:12.018Z,28.19
2018-06-30T14:56:41.971Z,28.46
2018-06-30T14:59:11.930Z,28.18
2018-06-30T15:01:41.646Z,27.82
2018-06-30T15:04:11.542Z,28.24
2018-06-30T15:06:41.306Z,28.52
2018-06-30T15:09:14.304Z,28.33
2018-06-30T15:11:45.090Z,28.08
2018-06-30T15:14:15.504Z,28.14
2018-06-30T15:16:45.319Z,28.31
2018-06-30T15:19:15.041Z,28.71
2018-06-30T15:21:44.842Z,28.31
2018-06-30T15:24:15.973Z,28.31
2018-06-30T15:26:45.778Z,28.08
2018-06-30T15:29:15.701Z,28.19
2018-06-30T15:31:45.562Z,28.71
2018-06-30T15:34:15.559Z,28.36
2018-06-30T15:36:45.520Z,28.14
2018-06-30T15:39:15.488Z,28.38
2018-06-30T15:41:45.725Z,28.54
2018-06-30T15:44:15.468Z,28.72
2018-06-30T15:46:45.388Z,28.08
2018-06-30T15:49:15.218Z,28.75
2018-06-30T15:51:46.043Z,28.38
2018-06-30T15:54:15.834Z,28.65
2018-06-30T15:56:45.642Z,28.36
2018-06-30T15:59:15.524Z,28.36
2018-06-30T16:01:45.288Z,28.48
2018-06-30T16:04:15.071Z,28.04
2018-06-30T16:06:44.846Z,28.40
2018-06-30T16:09:14.551Z,28.45
2018-06-30T16:11:44.283Z,28.21
2018-06-30T16:14:14.171Z,28.42
2018-06-30T16:16:44.053Z,28.14
2018-06-30T16:19:13.842Z,28.49
2018-06-30T16:22:05.751Z,28.23
2018-06-30T16:24:35.514Z,28.04
2018-06-30T16:27:05.251Z,28.03
2018-06-30T16:29:35.148Z,27.90
2018-06-30T16:32:04.950Z,27.99
2018-06-30T16:34:34.929Z,28.17
2018-06-30T16:37:04.812Z,27.99
2018-06-30T16:39:34.574Z,27.95
2018-06-30T16:42:04.583Z,27.86
2018-06-30T16:44:34.315Z,28.18
2018-06-30T16:47:04.113Z,28.11
2018-06-30T16:49:33.823Z,28.18
2018-06-30T16:52:03.755Z,27.68
2018-06-30T16:54:33.474Z,27.89
2018-06-30T16:57:03.270Z,28.06
2018-06-30T16:59:33.062Z,27.62
2018-06-30T17:02:02.924Z,27.85
2018-06-30T17:04:32.777Z,27.95
2018-06-30T17:07:06.736Z,27.95
2018-06-30T17:09:36.759Z,27.90
2018-06-30T17:12:06.462Z,27.81
2018-06-30T17:14:36.155Z,27.64
2018-06-30T17:17:05.970Z,27.50
2018-06-30T17:19:35.739Z,27.56
2018-06-30T17:22:05.521Z,27.39
2018-06-30T17:24:35.301Z,27.23
2018-06-30T17:27:05.006Z,27.27
2018-06-30T17:29:34.830Z,27.22
2018-06-30T17:32:04.670Z,27.01
2018-06-30T17:34:34.653Z,26.99
2018-06-30T17:37:04.488Z,26.89
2018-06-30T17:39:34.229Z,26.87
2018-06-30T17:42:03.987Z,27.00
2018-06-30T17:44:33.755Z,26.79
2018-06-30T17:47:03.518Z,26.67
2018-06-30T17:49:33.249Z,26.62
2018-06-30T17:52:02.970Z,26.59
2018-06-30T17:54:32.699Z,26.94
2018-06-30T17:57:02.452Z,26.60
2018-06-30T17:59:32.135Z,26.57
2018-06-30T18:02:01.815Z,26.54
2018-06-30T18:04:31.521Z,26.44
2018-06-30T18:07:01.186Z,26.43
2018-06-30T18:09:30.817Z,26.27
2018-06-30T18:12:00.594Z,26.12
2018-06-30T18:14:30.318Z,26.19
2018-06-30T18:16:59.941Z,26.19
2018-06-30T18:19:29.577Z,26.10
2018-06-30T18:21:59.266Z,26.02
2018-06-30T18:24:28.914Z,26.18
2018-06-30T18:26:58.637Z,25.96
2018-06-30T18:29:28.338Z,25.91
2018-06-30T18:31:57.949Z,25.77
2018-06-30T18:34:27.742Z,25.80
2018-06-30T18:36:57.518Z,25.79
2018-06-30T18:39:27.185Z,25.96
2018-06-30T18:41:56.820Z,25.63
2018-06-30T18:44:26.570Z,25.64
2018-06-30T18:46:56.306Z,25.45
2018-06-30T18:49:26.462Z,25.44
2018-06-30T18:51:56.132Z,25.47
2018-06-30T18:54:25.797Z,25.47
2018-06-30T18:56:55.591Z,25.44
2018-06-30T18:59:25.334Z,25.33
2018-06-30T19:01:54.993Z,25.30
2018-06-30T19:04:24.694Z,25.23
2018-06-30T19:06:54.479Z,25.11
2018-06-30T19:09:24.346Z,25.23
2018-06-30T19:11:53.995Z,25.05
2018-06-30T19:14:23.738Z,25.06
2018-06-30T19:16:53.404Z,24.89
2018-06-30T19:19:23.257Z,24.87
2018-06-30T19:21:52.901Z,24.77
2018-06-30T19:24:22.599Z,24.76
2018-06-30T19:26:52.589Z,24.87
2018-06-30T19:29:22.244Z,24.63
2018-06-30T19:31:52.032Z,24.61
2018-06-30T19:34:21.789Z,24.52
2018-06-30T19:36:51.580Z,24.56
2018-06-30T19:39:21.307Z,24.39
2018-06-30T19:41:51.117Z,24.27
2018-06-30T19:44:20.883Z,24.18
2018-06-30T19:46:50.690Z,24.14
2018-06-30T19:49:20.318Z,24.14
2018-06-30T19:51:49.970Z,24.16
2018-06-30T19:54:19.765Z,23.97
2018-06-30T19:56:49.413Z,23.97
2018-06-30T19:59:19.149Z,23.69
2018-06-30T20:01:49.229Z,23.82
2018-06-30T20:04:18.871Z,23.57
2018-06-30T20:06:48.559Z,23.72
2018-06-30T20:09:18.239Z,23.66
2018-06-30T20:11:47.944Z,23.53
2018-06-30T20:14:17.667Z,23.71
2018-06-30T20:16:47.307Z,23.49
2018-06-30T20:19:16.939Z,23.07
2018-06-30T20:21:46.992Z,23.25
2018-06-30T20:24:16.859Z,23.17
2018-06-30T20:26:46.548Z,23.19
2018-06-30T20:29:16.202Z,23.22
2018-06-30T20:31:46.032Z,23.01
2018-06-30T20:34:15.521Z,23.02
2018-06-30T20:36:45.190Z,22.91
2018-06-30T20:39:14.833Z,22.64
2018-06-30T20:41:44.477Z,22.61
2018-06-30T20:44:14.122Z,22.79
2018-06-30T20:46:43.758Z,22.68
2018-06-30T20:49:13.586Z,22.54
2018-06-30T20:51:43.226Z,22.48
2018-06-30T20:54:12.967Z,22.86
2018-06-30T20:56:42.558Z,22.51
2018-06-30T20:59:12.218Z,22.52
2018-06-30T21:01:42.038Z,22.44
2018-06-30T21:04:12.042Z,22.33
2018-06-30T21:06:41.694Z,22.06
2018-06-30T21:09:12.277Z,22.09
2018-06-30T21:11:41.993Z,22.34
2018-06-30T21:14:11.689Z,22.20
2018-06-30T21:16:41.311Z,22.11
2018-06-30T21:19:10.989Z,22.08
2018-06-30T21:21:40.604Z,22.23
2018-06-30T21:24:10.276Z,21.84
2018-06-30T21:26:40.010Z,21.79
2018-06-30T21:29:09.659Z,21.85
2018-06-30T21:31:39.303Z,21.68
2018-06-30T21:34:08.962Z,21.74
2018-06-30T21:36:38.692Z,21.90
2018-06-30T21:39:12.326Z,21.45
2018-06-30T21:41:42.085Z,21.75
2018-06-30T21:44:11.733Z,21.64
2018-06-30T21:46:41.335Z,21.75
2018-06-30T21:49:11.009Z,21.98
2018-06-30T21:51:40.622Z,21.62
2018-06-30T21:54:10.962Z,21.70
2018-06-30T21:56:40.688Z,21.45
2018-06-30T21:59:10.569Z,21.04
2018-06-30T22:01:41.222Z,21.50
2018-06-30T22:04:10.942Z,21.13
2018-06-30T22:06:40.603Z,21.32
2018-06-30T22:09:12.461Z,21.24
2018-06-30T22:11:42.165Z,21.46
2018-06-30T22:14:11.761Z,21.06
2018-06-30T22:16:41.478Z,21.44
2018-06-30T22:19:11.171Z,21.09
2018-06-30T22:21:40.865Z,21.24
2018-06-30T22:24:10.477Z,21.27
2018-06-30T22:26:39.756Z,21.31
2018-06-30T22:29:09.426Z,20.67
2018-06-30T22:31:39.240Z,20.19
2018-06-30T22:34:08.877Z,20.56
2018-06-30T22:36:39.618Z,20.02
2018-06-30T22:39:11.662Z,20.52
2018-06-30T22:41:41.280Z,20.74
2018-06-30T22:44:10.907Z,20.17
2018-06-30T22:46:40.682Z,20.16
2018-06-30T22:49:10.341Z,20.06
2018-06-30T22:51:39.942Z,20.29
2018-06-30T22:54:09.590Z,20.10
2018-06-30T22:56:39.245Z,19.76
2018-06-30T22:59:08.839Z,20.23
2018-06-30T23:01:38.483Z,20.13
2018-06-30T23:04:08.165Z,19.70
2018-06-30T23:06:37.802Z,19.54
2018-06-30T23:09:10.294Z,19.72
2018-06-30T23:11:39.925Z,19.92
2018-06-30T23:14:09.582Z,19.54
2018-06-30T23:16:39.709Z,19.84
2018-06-30T23:19:09.310Z,19.97
2018-06-30T23:21:39.081Z,19.35
2018-06-30T23:24:08.714Z,19.55
2018-06-30T23:26:38.330Z,19.92
2018-06-30T23:29:08.010Z,19.60
2018-06-30T23:31:37.686Z,19.73
2018-06-30T23:34:07.338Z,19.63
2018-06-30T23:36:37.082Z,19.54
2018-06-30T23:39:10.454Z,19.48
2018-06-30T23:41:40.338Z,19.48
2018-06-30T23:44:09.945Z,19.63
2018-06-30T23:46:39.623Z,19.51
2018-06-30T23:49:09.246Z,19.78
2018-06-30T23:51:38.903Z,19.48
2018-06-30T23:54:08.620Z,19.36
2018-06-30T23:56:38.246Z,19.35
2018-06-30T23:59:22.170Z,18.94
